Time,TemperatureF,DewpointF,PressureIn,WindDirection,WindDirectionDegrees,WindSpeedMPH,WindSpeedGustMPH,Humidity,HourlyPrecipIn,Conditions,Clouds,dailyrainin,SolarRadiationWatts/m^2,SoftwareType,DateUTC
2013-01-30 00:01:00,39.0,37.0,-100.00,ESE,113,0.0,5.0,94,0.00,,,0.00,0.000000,,2013-01-30 08:01:00,
2013-01-30 00:11:00,39.0,37.0,-100.00,ESE,113,0.0,5.0,94,0.00,,,0.00,0.000000,,2013-01-30 08:11:00,
2013-01-30 00:42:00,38.0,36.0,-100.00,ESE,121,0.0,6.0,92,0.00,,,0.00,0.000000,,2013-01-30 08:42:00,
2013-01-30 00:52:00,38.0,36.0,-100.00,ESE,121,0.0,6.0,92,0.00,,,0.00,0.000000,,2013-01-30 08:52:00,
2013-01-30 01:01:00,38.0,36.0,-100.00,ESE,121,0.0,6.0,92,0.00,,,0.00,0.000000,,2013-01-30 09:01:00,
2013-01-30 01:11:00,38.0,36.0,-100.00,ESE,121,0.0,6.0,92,0.00,,,0.00,0.000000,,2013-01-30 09:11:00,
2013-01-30 02:42:00,50.0,32.0,-100.00,ENE,76,13.0,28.0,49,-99.99,,,0.00,0.000000,,2013-01-30 10:42:00,
2013-01-30 02:52:00,50.0,32.0,-100.00,ENE,76,13.0,28.0,49,-99.99,,,0.00,0.000000,,2013-01-30 10:52:00,
2013-01-30 03:02:00,50.0,32.0,-100.00,ENE,76,13.0,28.0,49,-99.99,,,0.00,0.000000,,2013-01-30 11:02:00,
2013-01-30 03:11:00,50.0,32.0,-100.00,ENE,76,13.0,28.0,49,-99.99,,,0.00,0.000000,,2013-01-30 11:11:00,
2013-01-30 03:42:00,52.0,29.0,-100.00,East,82,16.0,26.0,41,0.00,,,0.00,0.000000,,2013-01-30 11:42:00,
2013-01-30 03:52:00,52.0,29.0,-100.00,East,82,16.0,26.0,41,0.00,,,0.00,0.000000,,2013-01-30 11:52:00,
2013-01-30 04:02:00,52.0,29.0,-100.00,East,82,16.0,26.0,41,0.00,,,0.00,0.000000,,2013-01-30 12:02:00,
2013-01-30 04:33:00,52.0,28.0,-100.00,East,81,15.0,26.0,40,0.00,,,0.00,0.000000,,2013-01-30 12:33:00,
2013-01-30 04:43:00,52.0,28.0,-100.00,East,81,15.0,26.0,40,0.00,,,0.00,0.000000,,2013-01-30 12:43:00,
2013-01-30 05:02:00,52.0,28.0,-100.00,East,81,15.0,26.0,40,0.00,,,0.00,0.000000,,2013-01-30 13:02:00,
2013-01-30 05:12:00,52.0,28.0,-100.00,East,81,15.0,26.0,40,0.00,,,0.00,0.000000,,2013-01-30 13:12:00,
2013-01-30 05:43:00,51.0,27.0,-100.00,East,84,16.0,25.0,39,0.00,,,0.00,0.000000,,2013-01-30 13:43:00,
2013-01-30 05:53:00,51.0,27.0,-100.00,East,84,16.0,25.0,39,0.00,,,0.00,0.000000,,2013-01-30 13:53:00,
2013-01-30 06:02:00,51.0,27.0,-100.00,East,84,16.0,25.0,39,0.00,,,0.00,0.000000,,2013-01-30 14:02:00,
2013-01-30 06:11:00,51.0,27.0,-100.00,East,84,16.0,25.0,39,0.00,,,0.00,0.000000,,2013-01-30 14:11:00,
2013-01-30 06:43:00,50.0,27.0,-100.00,ENE,72,15.0,29.0,41,0.00,,,0.00,0.000000,,2013-01-30 14:43:00,
2013-01-30 06:53:00,50.0,27.0,-100.00,ENE,72,15.0,29.0,41,0.00,,,0.00,0.000000,,2013-01-30 14:53:00,
2013-01-30 07:03:00,50.0,27.0,-100.00,ENE,72,15.0,29.0,41,0.00,,,0.00,0.000000,,2013-01-30 15:03:00,
2013-01-30 07:11:00,50.0,27.0,-100.00,ENE,72,15.0,29.0,41,0.00,,,0.00,0.000000,,2013-01-30 15:11:00,
2013-01-30 07:43:00,51.0,29.0,-100.00,ENE,71,14.0,27.0,43,-99.99,,,0.00,10.000000,,2013-01-30 15:43:00,
2013-01-30 07:53:00,51.0,29.0,-100.00,ENE,71,14.0,27.0,43,-99.99,,,0.00,10.000000,,2013-01-30 15:53:00,
2013-01-30 08:03:00,51.0,29.0,-100.00,ENE,71,14.0,27.0,43,-99.99,,,0.00,10.000000,,2013-01-30 16:03:00,
2013-01-30 08:12:00,51.0,29.0,-100.00,ENE,71,14.0,27.0,43,-99.99,,,0.00,10.000000,,2013-01-30 16:12:00,
2013-01-30 08:42:00,54.0,29.0,-100.00,ENE,73,19.0,33.0,38,0.00,,,0.00,213.000000,,2013-01-30 16:42:00,
2013-01-30 08:52:00,54.0,29.0,-100.00,ENE,73,19.0,33.0,38,0.00,,,0.00,213.000000,,2013-01-30 16:52:00,
2013-01-30 09:02:00,54.0,29.0,-100.00,ENE,73,19.0,33.0,38,0.00,,,0.00,213.000000,,2013-01-30 17:02:00,
2013-01-30 09:12:00,54.0,29.0,-100.00,ENE,73,19.0,33.0,38,0.00,,,0.00,213.000000,,2013-01-30 17:12:00,
2013-01-30 09:33:00,57.0,29.0,-100.00,ENE,78,18.0,33.0,34,0.00,,,0.00,433.000000,,2013-01-30 17:33:00,
2013-01-30 09:43:00,57.0,29.0,-100.00,ENE,78,18.0,33.0,34,0.00,,,0.00,433.000000,,2013-01-30 17:43:00,
2013-01-30 09:53:00,57.0,29.0,-100.00,ENE,78,18.0,33.0,34,0.00,,,0.00,433.000000,,2013-01-30 17:53:00,
2013-01-30 10:02:00,57.0,29.0,-100.00,ENE,78,18.0,33.0,34,0.00,,,0.00,433.000000,,2013-01-30 18:02:00,
2013-01-30 10:12:00,57.0,29.0,-100.00,ENE,78,18.0,33.0,34,0.00,,,0.00,433.000000,,2013-01-30 18:12:00,
2013-01-30 11:43:00,60.0,28.0,-100.00,East,79,14.0,22.0,29,-99.99,,,0.00,790.000000,,2013-01-30 19:43:00,
2013-01-30 11:53:00,60.0,28.0,-100.00,East,79,14.0,22.0,29,-99.99,,,0.00,790.000000,,2013-01-30 19:53:00,
2013-01-30 12:02:00,60.0,28.0,-100.00,East,79,14.0,22.0,29,-99.99,,,0.00,790.000000,,2013-01-30 20:02:00,
2013-01-30 12:11:00,60.0,28.0,-100.00,East,79,14.0,22.0,29,-99.99,,,0.00,790.000000,,2013-01-30 20:11:00,
2013-01-30 12:42:00,62.0,30.0,-100.00,ENE,77,17.0,26.0,30,0.00,,,0.00,853.000000,,2013-01-30 20:42:00,
2013-01-30 12:53:00,62.0,30.0,-100.00,ENE,77,17.0,26.0,30,0.00,,,0.00,853.000000,,2013-01-30 20:53:00,
2013-01-30 13:03:00,62.0,30.0,-100.00,ENE,77,17.0,26.0,30,0.00,,,0.00,853.000000,,2013-01-30 21:03:00,
2013-01-30 13:11:00,62.0,30.0,-100.00,ENE,77,17.0,26.0,30,0.00,,,0.00,853.000000,,2013-01-30 21:11:00,
2013-01-30 13:43:00,62.0,29.0,-100.00,ENE,66,13.0,27.0,28,0.00,,,0.00,835.000000,,2013-01-30 21:43:00,
2013-01-30 13:52:00,62.0,29.0,-100.00,ENE,66,13.0,27.0,28,0.00,,,0.00,835.000000,,2013-01-30 21:52:00,
2013-01-30 14:02:00,62.0,29.0,-100.00,ENE,66,13.0,27.0,28,0.00,,,0.00,835.000000,,2013-01-30 22:02:00,
2013-01-30 14:11:00,62.0,29.0,-100.00,ENE,66,13.0,27.0,28,0.00,,,0.00,835.000000,,2013-01-30 22:11:00,
2013-01-30 14:42:00,63.0,31.0,-100.00,ENE,71,14.0,23.0,30,0.00,,,0.00,736.000000,,2013-01-30 22:42:00,
2013-01-30 14:52:00,63.0,31.0,-100.00,ENE,71,14.0,23.0,30,0.00,,,0.00,736.000000,,2013-01-30 22:52:00,
2013-01-30 15:02:00,63.0,31.0,-100.00,ENE,71,14.0,23.0,30,0.00,,,0.00,736.000000,,2013-01-30 23:02:00,
2013-01-30 15:11:00,63.0,31.0,-100.00,ENE,71,14.0,23.0,30,0.00,,,0.00,736.000000,,2013-01-30 23:11:00,
2013-01-30 15:33:00,63.0,30.0,-100.00,ENE,69,12.0,22.0,29,0.00,,,0.00,566.000000,,2013-01-30 23:33:00,
2013-01-30 15:42:00,63.0,30.0,-100.00,ENE,69,12.0,22.0,29,0.00,,,0.00,566.000000,,2013-01-30 23:42:00,
2013-01-30 15:52:00,63.0,30.0,-100.00,ENE,69,12.0,22.0,29,0.00,,,0.00,566.000000,,2013-01-30 23:52:00,
2013-01-30 16:01:00,63.0,30.0,-100.00,ENE,69,12.0,22.0,29,0.00,,,0.00,566.000000,,2013-01-31 00:01:00,
2013-01-30 16:11:00,63.0,30.0,-100.00,ENE,69,12.0,22.0,29,0.00,,,0.00,566.000000,,2013-01-31 00:11:00,
2013-01-30 16:42:00,59.0,28.0,-100.00,NE,51,12.0,21.0,31,0.00,,,0.00,347.000000,,2013-01-31 00:42:00,
2013-01-30 16:53:00,59.0,28.0,-100.00,NE,51,12.0,21.0,31,0.00,,,0.00,347.000000,,2013-01-31 00:53:00,
2013-01-30 17:02:00,59.0,28.0,-100.00,NE,51,12.0,21.0,31,0.00,,,0.00,347.000000,,2013-01-31 01:02:00,
2013-01-30 17:11:00,59.0,28.0,-100.00,NE,51,12.0,21.0,31,0.00,,,0.00,347.000000,,2013-01-31 01:11:00,
2013-01-30 17:42:00,57.0,30.0,-100.00,ENE,58,11.0,21.0,35,0.00,,,0.00,105.000000,,2013-01-31 01:42:00,
2013-01-30 17:52:00,57.0,30.0,-100.00,ENE,58,11.0,21.0,35,0.00,,,0.00,105.000000,,2013-01-31 01:52:00,
2013-01-30 18:01:00,57.0,30.0,-100.00,ENE,58,11.0,21.0,35,0.00,,,0.00,105.000000,,2013-01-31 02:01:00,
2013-01-30 18:11:00,57.0,30.0,-100.00,ENE,58,11.0,21.0,35,0.00,,,0.00,105.000000,,2013-01-31 02:11:00,
2013-01-30 19:02:00,56.0,31.0,-100.00,ENE,71,15.0,21.0,38,0.00,,,0.00,1.000000,,2013-01-31 03:02:00,
2013-01-30 19:11:00,56.0,31.0,-100.00,ENE,71,15.0,21.0,38,0.00,,,0.00,1.000000,,2013-01-31 03:11:00,
2013-01-30 19:32:00,52.0,32.0,-100.00,NNW,330,1.0,18.0,46,0.00,,,0.00,0.000000,,2013-01-31 03:32:00,
2013-01-30 19:42:00,52.0,32.0,-100.00,NNW,330,1.0,18.0,46,0.00,,,0.00,0.000000,,2013-01-31 03:42:00,
2013-01-30 19:52:00,52.0,32.0,-100.00,NNW,330,1.0,18.0,46,0.00,,,0.00,0.000000,,2013-01-31 03:52:00,
2013-01-30 20:02:00,52.0,32.0,-100.00,NNW,330,1.0,18.0,46,0.00,,,0.00,0.000000,,2013-01-31 04:02:00,
2013-01-30 20:11:00,52.0,32.0,-100.00,NNW,330,1.0,18.0,46,0.00,,,0.00,0.000000,,2013-01-31 04:11:00,
2013-01-30 20:32:00,49.0,30.0,-100.00,SE,144,0.0,13.0,47,0.00,,,0.00,0.000000,,2013-01-31 04:32:00,
2013-01-30 20:42:00,49.0,30.0,-100.00,SE,144,0.0,13.0,47,0.00,,,0.00,0.000000,,2013-01-31 04:42:00,
2013-01-30 20:52:00,49.0,30.0,-100.00,SE,144,0.0,13.0,47,0.00,,,0.00,0.000000,,2013-01-31 04:52:00,
2013-01-30 21:03:00,49.0,30.0,-100.00,SE,144,0.0,13.0,47,0.00,,,0.00,0.000000,,2013-01-31 05:03:00,
2013-01-30 21:11:00,49.0,30.0,-100.00,SE,144,0.0,13.0,47,0.00,,,0.00,0.000000,,2013-01-31 05:11:00,
2013-01-30 21:42:00,49.0,34.0,-100.00,NNE,24,0.0,5.0,56,0.00,,,0.00,0.000000,,2013-01-31 05:42:00,
2013-01-30 21:52:00,49.0,34.0,-100.00,NNE,24,0.0,5.0,56,0.00,,,0.00,0.000000,,2013-01-31 05:52:00,
2013-01-30 22:01:00,49.0,34.0,-100.00,NNE,24,0.0,5.0,56,0.00,,,0.00,0.000000,,2013-01-31 06:01:00,
2013-01-30 22:10:00,49.0,34.0,-100.00,NNE,24,0.0,5.0,56,0.00,,,0.00,0.000000,,2013-01-31 06:10:00,